sensor_id;sensor_type;location;lat;lon;timestamp;temperature;humidity
61016;DHT22;46902;52.920;6.536;2022-12-18T00:00:43;-2.80;99.90
61016;DHT22;46902;52.920;6.536;2022-12-18T00:03:11;-2.80;99.90
61016;DHT22;46902;52.920;6.536;2022-12-18T00:05:37;-2.70;99.90
61016;DHT22;46902;52.920;6.536;2022-12-18T00:08:02;-2.80;99.90
61016;DHT22;46902;52.920;6.536;2022-12-18T00:10:28;-2.70;99.90
61016;DHT22;46902;52.920;6.536;2022-12-18T00:12:54;-2.70;99.90
61016;DHT22;46902;52.920;6.536;2022-12-18T00:15:20;-2.70;99.90
61016;DHT22;46902;52.920;6.536;2022-12-18T00:17:46;-2.70;99.90
61016;DHT22;46902;52.920;6.536;2022-12-18T00:20:11;-2.70;99.90
61016;DHT22;46902;52.920;6.536;2022-12-18T00:22:37;-2.70;99.90
61016;DHT22;46902;52.920;6.536;2022-12-18T00:25:03;-2.70;99.90
61016;DHT22;46902;52.920;6.536;2022-12-18T00:27:28;-2.80;99.90
61016;DHT22;46902;52.920;6.536;2022-12-18T00:29:54;-2.70;99.90
61016;DHT22;46902;52.920;6.536;2022-12-18T00:32:19;-2.80;99.90
61016;DHT22;46902;52.920;6.536;2022-12-18T00:34:45;-2.80;99.90
61016;DHT22;46902;52.920;6.536;2022-12-18T00:37:10;-2.80;99.90
61016;DHT22;46902;52.920;6.536;2022-12-18T00:39:36;-2.80;99.90
61016;DHT22;46902;52.920;6.536;2022-12-18T00:42:02;-2.80;99.90
61016;DHT22;46902;52.920;6.536;2022-12-18T00:44:46;-2.80;99.90
61016;DHT22;46902;52.920;6.536;2022-12-18T00:47:11;-2.80;99.90
61016;DHT22;46902;52.920;6.536;2022-12-18T00:49:37;-2.80;99.90
61016;DHT22;46902;52.920;6.536;2022-12-18T00:52:02;-2.90;99.90
61016;DHT22;46902;52.920;6.536;2022-12-18T00:54:28;-2.90;99.90
61016;DHT22;46902;52.920;6.536;2022-12-18T00:56:53;-2.90;99.90
61016;DHT22;46902;52.920;6.536;2022-12-18T00:59:20;-2.90;99.90
61016;DHT22;46902;52.920;6.536;2022-12-18T01:01:46;-3.00;99.90
61016;DHT22;46902;52.920;6.536;2022-12-18T01:04:12;-3.00;99.90
61016;DHT22;46902;52.920;6.536;2022-12-18T01:06:38;-3.00;99.90
61016;DHT22;46902;52.920;6.536;2022-12-18T01:09:03;-3.00;99.90
61016;DHT22;46902;52.920;6.536;2022-12-18T01:11:29;-3.00;99.90
61016;DHT22;46902;52.920;6.536;2022-12-18T01:13:55;-3.00;99.90
61016;DHT22;46902;52.920;6.536;2022-12-18T01:16:21;-3.00;99.90
61016;DHT22;46902;52.920;6.536;2022-12-18T01:18:46;-3.00;99.90
61016;DHT22;46902;52.920;6.536;2022-12-18T01:21:15;-3.00;99.90
61016;DHT22;46902;52.920;6.536;2022-12-18T01:23:41;-3.00;99.90
61016;DHT22;46902;52.920;6.536;2022-12-18T01:26:13;-3.00;99.90
61016;DHT22;46902;52.920;6.536;2022-12-18T01:28:39;-2.90;99.90
61016;DHT22;46902;52.920;6.536;2022-12-18T01:31:35;-2.90;99.90
61016;DHT22;46902;52.920;6.536;2022-12-18T01:34:01;-2.90;99.90
61016;DHT22;46902;52.920;6.536;2022-12-18T01:36:32;-2.90;99.90
61016;DHT22;46902;52.920;6.536;2022-12-18T01:39:09;-2.90;99.90
61016;DHT22;46902;52.920;6.536;2022-12-18T01:41:35;-2.90;99.90
61016;DHT22;46902;52.920;6.536;2022-12-18T01:52:34;-3.10;99.90
61016;DHT22;46902;52.920;6.536;2022-12-18T01:55:02;-3.00;99.90
61016;DHT22;46902;52.920;6.536;2022-12-18T01:57:29;-3.00;99.90
61016;DHT22;46902;52.920;6.536;2022-12-18T01:59:59;-3.00;99.90
61016;DHT22;46902;52.920;6.536;2022-12-18T02:02:27;-3.00;99.90
61016;DHT22;46902;52.920;6.536;2022-12-18T02:04:54;-2.90;99.90
61016;DHT22;46902;52.920;6.536;2022-12-18T02:07:35;-2.90;99.90
61016;DHT22;46902;52.920;6.536;2022-12-18T02:10:12;-3.00;99.90
61016;DHT22;46902;52.920;6.536;2022-12-18T02:15:14;-3.00;99.90
61016;DHT22;46902;52.920;6.536;2022-12-18T02:17:56;-3.00;99.90
61016;DHT22;46902;52.920;6.536;2022-12-18T02:20:32;-3.00;99.90
61016;DHT22;46902;52.920;6.536;2022-12-18T02:23:21;-3.00;99.90
61016;DHT22;46902;52.920;6.536;2022-12-18T02:26:09;-3.10;99.90
61016;DHT22;46902;52.920;6.536;2022-12-18T02:28:44;-3.20;99.90
61016;DHT22;46902;52.920;6.536;2022-12-18T02:31:17;-3.20;99.90
61016;DHT22;46902;52.920;6.536;2022-12-18T02:33:49;-3.20;99.90
61016;DHT22;46902;52.920;6.536;2022-12-18T02:36:17;-3.30;99.90
61016;DHT22;46902;52.920;6.536;2022-12-18T02:38:44;-3.30;99.90
61016;DHT22;46902;52.920;6.536;2022-12-18T02:41:11;-3.30;99.90
61016;DHT22;46902;52.920;6.536;2022-12-18T02:43:38;-3.40;99.90
61016;DHT22;46902;52.920;6.536;2022-12-18T02:46:27;-3.50;99.90
61016;DHT22;46902;52.920;6.536;2022-12-18T02:49:01;-3.50;99.90
61016;DHT22;46902;52.920;6.536;2022-12-18T02:52:02;-3.50;99.90
61016;DHT22;46902;52.920;6.536;2022-12-18T02:54:35;-3.60;99.90
61016;DHT22;46902;52.920;6.536;2022-12-18T02:57:18;-3.60;99.90
61016;DHT22;46902;52.920;6.536;2022-12-18T02:59:56;-3.60;99.90
61016;DHT22;46902;52.920;6.536;2022-12-18T03:02:29;-3.70;99.90
61016;DHT22;46902;52.920;6.536;2022-12-18T03:07:37;-3.70;99.90
61016;DHT22;46902;52.920;6.536;2022-12-18T03:10:06;-3.70;99.90
61016;DHT22;46902;52.920;6.536;2022-12-18T03:12:36;-3.80;99.90
61016;DHT22;46902;52.920;6.536;2022-12-18T03:15:08;-3.80;99.90
61016;DHT22;46902;52.920;6.536;2022-12-18T03:17:34;-3.80;99.90
61016;DHT22;46902;52.920;6.536;2022-12-18T03:20:07;-3.80;99.90
61016;DHT22;46902;52.920;6.536;2022-12-18T03:22:36;-3.80;99.90
61016;DHT22;46902;52.920;6.536;2022-12-18T03:25:06;-3.90;99.90
61016;DHT22;46902;52.920;6.536;2022-12-18T03:27:33;-3.90;99.90
61016;DHT22;46902;52.920;6.536;2022-12-18T03:30:07;-3.90;99.90
61016;DHT22;46902;52.920;6.536;2022-12-18T03:32:40;-3.90;99.90
61016;DHT22;46902;52.920;6.536;2022-12-18T03:35:08;-3.90;99.90
61016;DHT22;46902;52.920;6.536;2022-12-18T03:37:35;-3.90;99.90
61016;DHT22;46902;52.920;6.536;2022-12-18T03:40:00;-3.90;99.90
61016;DHT22;46902;52.920;6.536;2022-12-18T03:42:37;-3.90;99.90
61016;DHT22;46902;52.920;6.536;2022-12-18T03:45:18;-3.90;99.90
61016;DHT22;46902;52.920;6.536;2022-12-18T03:50:45;-3.90;99.90
61016;DHT22;46902;52.920;6.536;2022-12-18T03:53:23;-3.90;99.90
61016;DHT22;46902;52.920;6.536;2022-12-18T03:55:51;-4.00;99.90
61016;DHT22;46902;52.920;6.536;2022-12-18T03:58:20;-4.00;99.90
61016;DHT22;46902;52.920;6.536;2022-12-18T04:00:48;-4.10;99.90
61016;DHT22;46902;52.920;6.536;2022-12-18T04:03:16;-4.00;99.90
61016;DHT22;46902;52.920;6.536;2022-12-18T04:05:44;-4.10;99.90
61016;DHT22;46902;52.920;6.536;2022-12-18T04:08:10;-4.10;99.90
61016;DHT22;46902;52.920;6.536;2022-12-18T04:10:36;-4.10;99.90
61016;DHT22;46902;52.920;6.536;2022-12-18T04:13:02;-4.10;99.90
61016;DHT22;46902;52.920;6.536;2022-12-18T04:15:27;-4.20;99.90
61016;DHT22;46902;52.920;6.536;2022-12-18T04:17:53;-4.20;99.90
61016;DHT22;46902;52.920;6.536;2022-12-18T04:20:18;-4.20;99.90
61016;DHT22;46902;52.920;6.536;2022-12-18T04:22:44;-4.20;99.90
61016;DHT22;46902;52.920;6.536;2022-12-18T04:25:10;-4.20;99.90
61016;DHT22;46902;52.920;6.536;2022-12-18T04:27:35;-4.20;99.90
61016;DHT22;46902;52.920;6.536;2022-12-18T04:30:01;-4.30;99.90
61016;DHT22;46902;52.920;6.536;2022-12-18T04:32:26;-4.20;99.90
61016;DHT22;46902;52.920;6.536;2022-12-18T04:34:52;-4.20;99.90
61016;DHT22;46902;52.920;6.536;2022-12-18T04:37:17;-4.20;99.90
61016;DHT22;46902;52.920;6.536;2022-12-18T04:39:43;-4.20;99.90
61016;DHT22;46902;52.920;6.536;2022-12-18T04:42:09;-4.20;99.90
61016;DHT22;46902;52.920;6.536;2022-12-18T04:44:34;-4.20;99.90
61016;DHT22;46902;52.920;6.536;2022-12-18T04:47:01;-4.20;99.90
61016;DHT22;46902;52.920;6.536;2022-12-18T04:49:26;-4.20;99.90
61016;DHT22;46902;52.920;6.536;2022-12-18T04:51:52;-4.20;99.90
61016;DHT22;46902;52.920;6.536;2022-12-18T04:54:18;-4.20;99.90
61016;DHT22;46902;52.920;6.536;2022-12-18T04:56:47;-4.20;99.90
61016;DHT22;46902;52.920;6.536;2022-12-18T04:59:12;-4.20;99.90
61016;DHT22;46902;52.920;6.536;2022-12-18T05:01:38;-4.20;99.90
61016;DHT22;46902;52.920;6.536;2022-12-18T05:04:04;-4.20;99.90
61016;DHT22;46902;52.920;6.536;2022-12-18T05:06:29;-4.20;99.90
61016;DHT22;46902;52.920;6.536;2022-12-18T05:08:55;-4.20;99.90
61016;DHT22;46902;52.920;6.536;2022-12-18T05:11:21;-4.30;99.90
61016;DHT22;46902;52.920;6.536;2022-12-18T05:13:46;-4.30;99.90
61016;DHT22;46902;52.920;6.536;2022-12-18T05:16:13;-4.30;99.90
61016;DHT22;46902;52.920;6.536;2022-12-18T05:18:39;-4.30;99.90
61016;DHT22;46902;52.920;6.536;2022-12-18T05:21:04;-4.30;99.90
61016;DHT22;46902;52.920;6.536;2022-12-18T05:23:30;-4.40;99.90
61016;DHT22;46902;52.920;6.536;2022-12-18T05:26:01;-4.40;99.90
61016;DHT22;46902;52.920;6.536;2022-12-18T05:28:30;-4.50;99.90
61016;DHT22;46902;52.920;6.536;2022-12-18T05:30:58;-4.50;99.90
61016;DHT22;46902;52.920;6.536;2022-12-18T05:33:26;-4.50;99.90
61016;DHT22;46902;52.920;6.536;2022-12-18T05:35:57;-4.40;99.90
61016;DHT22;46902;52.920;6.536;2022-12-18T05:38:24;-4.40;99.90
61016;DHT22;46902;52.920;6.536;2022-12-18T05:40:51;-4.40;99.90
61016;DHT22;46902;52.920;6.536;2022-12-18T05:43:18;-4.40;99.90
61016;DHT22;46902;52.920;6.536;2022-12-18T05:45:44;-4.40;99.90
61016;DHT22;46902;52.920;6.536;2022-12-18T05:48:10;-4.40;99.90
61016;DHT22;46902;52.920;6.536;2022-12-18T05:50:40;-4.40;99.90
61016;DHT22;46902;52.920;6.536;2022-12-18T05:53:06;-4.30;99.90
61016;DHT22;46902;52.920;6.536;2022-12-18T05:55:37;-4.30;99.90
61016;DHT22;46902;52.920;6.536;2022-12-18T05:58:04;-4.30;99.90
61016;DHT22;46902;52.920;6.536;2022-12-18T06:00:32;-4.40;99.90
61016;DHT22;46902;52.920;6.536;2022-12-18T06:02:58;-4.40;99.90
61016;DHT22;46902;52.920;6.536;2022-12-18T06:05:24;-4.40;99.90
61016;DHT22;46902;52.920;6.536;2022-12-18T06:07:50;-4.40;99.90
61016;DHT22;46902;52.920;6.536;2022-12-18T06:10:16;-4.50;99.90
61016;DHT22;46902;52.920;6.536;2022-12-18T06:12:41;-4.50;99.90
61016;DHT22;46902;52.920;6.536;2022-12-18T06:15:07;-4.50;99.90
61016;DHT22;46902;52.920;6.536;2022-12-18T06:17:33;-4.50;99.90
61016;DHT22;46902;52.920;6.536;2022-12-18T06:19:59;-4.50;99.90
61016;DHT22;46902;52.920;6.536;2022-12-18T06:22:25;-4.50;99.90
61016;DHT22;46902;52.920;6.536;2022-12-18T06:24:51;-4.50;99.90
61016;DHT22;46902;52.920;6.536;2022-12-18T06:27:17;-4.50;99.90
61016;DHT22;46902;52.920;6.536;2022-12-18T06:29:42;-4.40;99.90
61016;DHT22;46902;52.920;6.536;2022-12-18T06:32:08;-4.50;99.90
61016;DHT22;46902;52.920;6.536;2022-12-18T06:34:34;-4.50;99.90
61016;DHT22;46902;52.920;6.536;2022-12-18T06:37:01;-4.40;99.90
61016;DHT22;46902;52.920;6.536;2022-12-18T06:39:27;-4.50;99.90
61016;DHT22;46902;52.920;6.536;2022-12-18T06:41:53;-4.40;99.90
61016;DHT22;46902;52.920;6.536;2022-12-18T06:44:19;-4.40;99.90
61016;DHT22;46902;52.920;6.536;2022-12-18T06:46:45;-4.40;99.90
61016;DHT22;46902;52.920;6.536;2022-12-18T06:49:10;-4.40;99.90
61016;DHT22;46902;52.920;6.536;2022-12-18T06:51:36;-4.40;99.90
61016;DHT22;46902;52.920;6.536;2022-12-18T06:54:01;-4.50;99.90
61016;DHT22;46902;52.920;6.536;2022-12-18T06:56:27;-4.40;99.90
61016;DHT22;46902;52.920;6.536;2022-12-18T06:58:53;-4.40;99.90
61016;DHT22;46902;52.920;6.536;2022-12-18T07:01:19;-4.40;99.90
61016;DHT22;46902;52.920;6.536;2022-12-18T07:03:45;-4.40;99.90
61016;DHT22;46902;52.920;6.536;2022-12-18T07:06:18;-4.30;99.90
61016;DHT22;46902;52.920;6.536;2022-12-18T07:08:45;-4.40;99.90
61016;DHT22;46902;52.920;6.536;2022-12-18T07:11:11;-4.40;99.90
61016;DHT22;46902;52.920;6.536;2022-12-18T07:13:36;-4.40;99.90
61016;DHT22;46902;52.920;6.536;2022-12-18T07:16:10;-4.40;99.90
61016;DHT22;46902;52.920;6.536;2022-12-18T07:18:36;-4.50;99.90
61016;DHT22;46902;52.920;6.536;2022-12-18T07:21:07;-4.50;99.90
61016;DHT22;46902;52.920;6.536;2022-12-18T07:23:34;-4.50;99.90
61016;DHT22;46902;52.920;6.536;2022-12-18T07:26:04;-4.60;99.90
61016;DHT22;46902;52.920;6.536;2022-12-18T07:28:31;-4.60;99.90
61016;DHT22;46902;52.920;6.536;2022-12-18T07:30:57;-4.60;99.90
61016;DHT22;46902;52.920;6.536;2022-12-18T07:33:24;-4.60;99.90
61016;DHT22;46902;52.920;6.536;2022-12-18T07:35:50;-4.60;99.90
61016;DHT22;46902;52.920;6.536;2022-12-18T07:38:15;-4.60;99.90
61016;DHT22;46902;52.920;6.536;2022-12-18T07:40:41;-4.60;99.90
61016;DHT22;46902;52.920;6.536;2022-12-18T07:43:06;-4.60;99.90
61016;DHT22;46902;52.920;6.536;2022-12-18T07:45:32;-4.60;99.90
61016;DHT22;46902;52.920;6.536;2022-12-18T07:47:57;-4.60;99.90
61016;DHT22;46902;52.920;6.536;2022-12-18T07:50:23;-4.60;99.90
61016;DHT22;46902;52.920;6.536;2022-12-18T07:52:49;-4.60;99.90
61016;DHT22;46902;52.920;6.536;2022-12-18T07:55:15;-4.60;99.90
61016;DHT22;46902;52.920;6.536;2022-12-18T07:57:40;-4.60;99.90
61016;DHT22;46902;52.920;6.536;2022-12-18T08:00:06;-4.60;99.90
61016;DHT22;46902;52.920;6.536;2022-12-18T08:02:32;-4.60;99.90
61016;DHT22;46902;52.920;6.536;2022-12-18T08:04:57;-4.50;99.90
61016;DHT22;46902;52.920;6.536;2022-12-18T08:07:23;-4.50;99.90
61016;DHT22;46902;52.920;6.536;2022-12-18T08:09:49;-4.50;99.90
61016;DHT22;46902;52.920;6.536;2022-12-18T08:12:14;-4.40;99.90
61016;DHT22;46902;52.920;6.536;2022-12-18T08:14:40;-4.40;99.90
61016;DHT22;46902;52.920;6.536;2022-12-18T08:17:06;-4.30;99.90
61016;DHT22;46902;52.920;6.536;2022-12-18T08:19:31;-4.30;99.90
61016;DHT22;46902;52.920;6.536;2022-12-18T08:21:57;-4.30;99.90
61016;DHT22;46902;52.920;6.536;2022-12-18T08:24:22;-4.30;99.90
61016;DHT22;46902;52.920;6.536;2022-12-18T08:26:48;-4.30;99.90
61016;DHT22;46902;52.920;6.536;2022-12-18T08:29:13;-4.20;99.90
61016;DHT22;46902;52.920;6.536;2022-12-18T08:31:39;-4.20;99.90
61016;DHT22;46902;52.920;6.536;2022-12-18T08:34:04;-4.10;99.90
61016;DHT22;46902;52.920;6.536;2022-12-18T08:36:30;-4.10;99.90
61016;DHT22;46902;52.920;6.536;2022-12-18T08:38:56;-4.10;99.90
61016;DHT22;46902;52.920;6.536;2022-12-18T08:41:22;-4.00;99.90
61016;DHT22;46902;52.920;6.536;2022-12-18T08:43:48;-4.00;99.90
61016;DHT22;46902;52.920;6.536;2022-12-18T08:46:37;-3.90;99.90
61016;DHT22;46902;52.920;6.536;2022-12-18T08:49:04;-3.90;99.90
61016;DHT22;46902;52.920;6.536;2022-12-18T08:51:30;-3.80;99.90
61016;DHT22;46902;52.920;6.536;2022-12-18T08:53:56;-3.80;99.90
61016;DHT22;46902;52.920;6.536;2022-12-18T08:56:21;-3.70;99.90
61016;DHT22;46902;52.920;6.536;2022-12-18T08:58:47;-3.70;99.90
61016;DHT22;46902;52.920;6.536;2022-12-18T09:01:13;-3.60;99.90
61016;DHT22;46902;52.920;6.536;2022-12-18T09:03:39;-3.60;99.90
61016;DHT22;46902;52.920;6.536;2022-12-18T09:06:05;-3.50;99.90
61016;DHT22;46902;52.920;6.536;2022-12-18T09:08:30;-3.40;99.90
61016;DHT22;46902;52.920;6.536;2022-12-18T09:10:59;-3.40;99.90
61016;DHT22;46902;52.920;6.536;2022-12-18T09:13:25;-3.30;99.90
61016;DHT22;46902;52.920;6.536;2022-12-18T09:15:52;-3.20;99.90
61016;DHT22;46902;52.920;6.536;2022-12-18T09:18:20;-3.10;99.90
61016;DHT22;46902;52.920;6.536;2022-12-18T09:20:46;-3.00;99.90
61016;DHT22;46902;52.920;6.536;2022-12-18T09:23:12;-3.00;99.90
61016;DHT22;46902;52.920;6.536;2022-12-18T09:25:38;-3.00;99.90
61016;DHT22;46902;52.920;6.536;2022-12-18T09:28:06;-2.90;99.90
61016;DHT22;46902;52.920;6.536;2022-12-18T09:30:32;-2.80;99.90
61016;DHT22;46902;52.920;6.536;2022-12-18T09:32:59;-2.80;99.90
61016;DHT22;46902;52.920;6.536;2022-12-18T09:35:25;-2.70;99.90
61016;DHT22;46902;52.920;6.536;2022-12-18T09:37:51;-2.70;99.90
61016;DHT22;46902;52.920;6.536;2022-12-18T09:40:21;-2.60;99.90
61016;DHT22;46902;52.920;6.536;2022-12-18T09:42:53;-2.60;99.90
61016;DHT22;46902;52.920;6.536;2022-12-18T09:45:20;-2.50;99.90
61016;DHT22;46902;52.920;6.536;2022-12-18T09:47:47;-2.50;99.90
61016;DHT22;46902;52.920;6.536;2022-12-18T09:50:21;-2.40;99.90
61016;DHT22;46902;52.920;6.536;2022-12-18T09:52:51;-2.30;99.90
61016;DHT22;46902;52.920;6.536;2022-12-18T09:55:24;-2.20;99.90
61016;DHT22;46902;52.920;6.536;2022-12-18T09:57:57;-2.10;99.90
61016;DHT22;46902;52.920;6.536;2022-12-18T10:00:26;-2.00;99.90
61016;DHT22;46902;52.920;6.536;2022-12-18T10:02:58;-2.00;99.90
61016;DHT22;46902;52.920;6.536;2022-12-18T10:08:37;-1.90;99.90
61016;DHT22;46902;52.920;6.536;2022-12-18T10:19:40;-1.70;99.90
61016;DHT22;46902;52.920;6.536;2022-12-18T10:22:41;-1.60;99.90
61016;DHT22;46902;52.920;6.536;2022-12-18T10:28:09;-1.60;99.90
61016;DHT22;46902;52.920;6.536;2022-12-18T10:30:36;-1.60;99.90
61016;DHT22;46902;52.920;6.536;2022-12-18T10:33:03;-1.50;99.90
61016;DHT22;46902;52.920;6.536;2022-12-18T10:35:29;-1.50;99.90
61016;DHT22;46902;52.920;6.536;2022-12-18T10:38:22;-1.50;99.90
61016;DHT22;46902;52.920;6.536;2022-12-18T10:43:26;-1.30;99.90
61016;DHT22;46902;52.920;6.536;2022-12-18T10:48:50;-1.30;99.90
61016;DHT22;46902;52.920;6.536;2022-12-18T10:53:59;-1.20;99.90
61016;DHT22;46902;52.920;6.536;2022-12-18T10:56:27;-1.20;99.90
61016;DHT22;46902;52.920;6.536;2022-12-18T10:59:05;-1.20;99.90
61016;DHT22;46902;52.920;6.536;2022-12-18T11:01:52;-1.20;99.90
61016;DHT22;46902;52.920;6.536;2022-12-18T11:07:04;-1.10;99.90
61016;DHT22;46902;52.920;6.536;2022-12-18T11:09:32;-1.10;99.90
61016;DHT22;46902;52.920;6.536;2022-12-18T11:12:01;-1.10;99.90
61016;DHT22;46902;52.920;6.536;2022-12-18T11:14:30;-1.10;99.90
61016;DHT22;46902;52.920;6.536;2022-12-18T11:16:58;-1.00;99.90
61016;DHT22;46902;52.920;6.536;2022-12-18T11:19:34;-1.00;99.90
61016;DHT22;46902;52.920;6.536;2022-12-18T11:22:30;-0.90;99.90
61016;DHT22;46902;52.920;6.536;2022-12-18T11:25:05;-0.90;99.90
61016;DHT22;46902;52.920;6.536;2022-12-18T11:27:32;-0.90;99.90
61016;DHT22;46902;52.920;6.536;2022-12-18T11:30:34;-0.80;99.90
61016;DHT22;46902;52.920;6.536;2022-12-18T11:33:26;-0.70;99.90
61016;DHT22;46902;52.920;6.536;2022-12-18T11:36:03;-0.70;99.90
61016;DHT22;46902;52.920;6.536;2022-12-18T11:38:33;-0.70;99.90
61016;DHT22;46902;52.920;6.536;2022-12-18T11:41:26;-0.70;99.90
61016;DHT22;46902;52.920;6.536;2022-12-18T11:44:15;-0.60;99.90
61016;DHT22;46902;52.920;6.536;2022-12-18T11:46:48;-0.60;99.90
61016;DHT22;46902;52.920;6.536;2022-12-18T11:49:22;-0.60;99.90
61016;DHT22;46902;52.920;6.536;2022-12-18T11:52:33;-0.50;99.90
61016;DHT22;46902;52.920;6.536;2022-12-18T11:54:33;-0.60;99.90
61016;DHT22;46902;52.920;6.536;2022-12-18T12:02:48;-0.50;99.90
61016;DHT22;46902;52.920;6.536;2022-12-18T12:18:57;-0.30;99.90
61016;DHT22;46902;52.920;6.536;2022-12-18T12:21:40;-0.30;99.90
61016;DHT22;46902;52.920;6.536;2022-12-18T12:27:18;-0.30;99.90
61016;DHT22;46902;52.920;6.536;2022-12-18T12:29:49;-0.20;99.90
61016;DHT22;46902;52.920;6.536;2022-12-18T12:32:44;-0.20;99.90
61016;DHT22;46902;52.920;6.536;2022-12-18T12:38:11;-0.20;99.90
61016;DHT22;46902;52.920;6.536;2022-12-18T12:40:44;-0.20;99.90
61016;DHT22;46902;52.920;6.536;2022-12-18T12:46:10;0.00;99.90
61016;DHT22;46902;52.920;6.536;2022-12-18T12:51:11;0.10;99.90
61016;DHT22;46902;52.920;6.536;2022-12-18T12:53:39;0.10;99.90
61016;DHT22;46902;52.920;6.536;2022-12-18T12:56:08;0.20;99.90
61016;DHT22;46902;52.920;6.536;2022-12-18T12:58:44;0.20;99.90
61016;DHT22;46902;52.920;6.536;2022-12-18T13:06:33;0.20;99.90
61016;DHT22;46902;52.920;6.536;2022-12-18T13:09:02;0.20;99.90
61016;DHT22;46902;52.920;6.536;2022-12-18T13:11:36;0.20;99.90
61016;DHT22;46902;52.920;6.536;2022-12-18T13:14:24;0.20;99.90
61016;DHT22;46902;52.920;6.536;2022-12-18T13:16:51;0.30;99.90
61016;DHT22;46902;52.920;6.536;2022-12-18T13:19:24;0.30;99.90
61016;DHT22;46902;52.920;6.536;2022-12-18T13:21:55;0.30;99.90
61016;DHT22;46902;52.920;6.536;2022-12-18T13:24:26;0.30;99.90
61016;DHT22;46902;52.920;6.536;2022-12-18T13:26:52;0.30;99.90
61016;DHT22;46902;52.920;6.536;2022-12-18T13:29:43;0.30;99.90
61016;DHT22;46902;52.920;6.536;2022-12-18T13:32:24;0.30;99.90
61016;DHT22;46902;52.920;6.536;2022-12-18T13:37:54;0.30;99.90
61016;DHT22;46902;52.920;6.536;2022-12-18T13:48:25;0.30;99.90
61016;DHT22;46902;52.920;6.536;2022-12-18T13:51:01;0.20;99.90
61016;DHT22;46902;52.920;6.536;2022-12-18T13:53:54;0.20;99.90
61016;DHT22;46902;52.920;6.536;2022-12-18T13:56:21;0.30;99.90
61016;DHT22;46902;52.920;6.536;2022-12-18T14:01:35;0.30;99.90
61016;DHT22;46902;52.920;6.536;2022-12-18T14:04:11;0.30;99.90
61016;DHT22;46902;52.920;6.536;2022-12-18T14:06:38;0.30;99.90
61016;DHT22;46902;52.920;6.536;2022-12-18T14:09:03;0.20;99.90
61016;DHT22;46902;52.920;6.536;2022-12-18T14:11:29;0.30;99.90
61016;DHT22;46902;52.920;6.536;2022-12-18T14:13:56;0.30;99.90
61016;DHT22;46902;52.920;6.536;2022-12-18T14:16:22;0.20;99.90
61016;DHT22;46902;52.920;6.536;2022-12-18T14:18:52;0.20;99.90
61016;DHT22;46902;52.920;6.536;2022-12-18T14:21:27;0.20;99.90
61016;DHT22;46902;52.920;6.536;2022-12-18T14:24:23;0.20;99.90
61016;DHT22;46902;52.920;6.536;2022-12-18T14:26:50;0.20;99.90
61016;DHT22;46902;52.920;6.536;2022-12-18T14:29:25;0.10;99.90
61016;DHT22;46902;52.920;6.536;2022-12-18T14:32:13;0.20;99.90
61016;DHT22;46902;52.920;6.536;2022-12-18T14:34:45;0.10;99.90
61016;DHT22;46902;52.920;6.536;2022-12-18T14:37:13;0.10;99.90
61016;DHT22;46902;52.920;6.536;2022-12-18T14:39:39;0.10;99.90
61016;DHT22;46902;52.920;6.536;2022-12-18T14:42:05;0.10;99.90
61016;DHT22;46902;52.920;6.536;2022-12-18T14:44:31;0.00;99.90
61016;DHT22;46902;52.920;6.536;2022-12-18T14:46:56;0.00;99.90
61016;DHT22;46902;52.920;6.536;2022-12-18T14:49:32;0.00;99.90
61016;DHT22;46902;52.920;6.536;2022-12-18T14:52:04;0.00;99.90
61016;DHT22;46902;52.920;6.536;2022-12-18T14:54:31;0.00;99.90
61016;DHT22;46902;52.920;6.536;2022-12-18T14:57:05;0.00;99.90
61016;DHT22;46902;52.920;6.536;2022-12-18T14:59:31;0.00;99.90
61016;DHT22;46902;52.920;6.536;2022-12-18T15:04:40;-0.10;99.90
61016;DHT22;46902;52.920;6.536;2022-12-18T15:07:23;-0.10;99.90
61016;DHT22;46902;52.920;6.536;2022-12-18T15:12:33;-0.10;99.90
61016;DHT22;46902;52.920;6.536;2022-12-18T15:14:59;-0.10;99.90
61016;DHT22;46902;52.920;6.536;2022-12-18T15:17:25;-0.20;99.90
61016;DHT22;46902;52.920;6.536;2022-12-18T15:20:00;-0.20;99.90
61016;DHT22;46902;52.920;6.536;2022-12-18T15:22:27;-0.20;99.90
61016;DHT22;46902;52.920;6.536;2022-12-18T15:24:57;-0.20;99.90
61016;DHT22;46902;52.920;6.536;2022-12-18T15:27:30;-0.10;99.90
61016;DHT22;46902;52.920;6.536;2022-12-18T15:32:39;-0.20;99.90
61016;DHT22;46902;52.920;6.536;2022-12-18T15:37:37;-0.20;99.90
61016;DHT22;46902;52.920;6.536;2022-12-18T15:40:07;-0.20;99.90
61016;DHT22;46902;52.920;6.536;2022-12-18T15:42:33;-0.20;99.90
61016;DHT22;46902;52.920;6.536;2022-12-18T15:45:17;-0.20;99.90
61016;DHT22;46902;52.920;6.536;2022-12-18T15:47:43;-0.30;99.90
61016;DHT22;46902;52.920;6.536;2022-12-18T15:50:10;-0.30;99.90
61016;DHT22;46902;52.920;6.536;2022-12-18T15:52:46;-0.30;99.90
61016;DHT22;46902;52.920;6.536;2022-12-18T15:55:23;-0.30;99.90
61016;DHT22;46902;52.920;6.536;2022-12-18T15:58:09;-0.30;99.90
61016;DHT22;46902;52.920;6.536;2022-12-18T16:00:37;-0.30;99.90
61016;DHT22;46902;52.920;6.536;2022-12-18T16:03:04;-0.30;99.90
61016;DHT22;46902;52.920;6.536;2022-12-18T16:05:30;-0.30;99.90
61016;DHT22;46902;52.920;6.536;2022-12-18T16:07:56;-0.30;99.90
61016;DHT22;46902;52.920;6.536;2022-12-18T16:10:22;-0.30;99.90
61016;DHT22;46902;52.920;6.536;2022-12-18T16:12:49;-0.30;99.90
61016;DHT22;46902;52.920;6.536;2022-12-18T16:15:15;-0.30;99.90
61016;DHT22;46902;52.920;6.536;2022-12-18T16:17:46;-0.30;99.90
61016;DHT22;46902;52.920;6.536;2022-12-18T16:20:19;-0.30;99.90
61016;DHT22;46902;52.920;6.536;2022-12-18T16:22:46;-0.30;99.90
61016;DHT22;46902;52.920;6.536;2022-12-18T16:25:24;-0.30;99.90
61016;DHT22;46902;52.920;6.536;2022-12-18T16:27:51;-0.30;99.90
61016;DHT22;46902;52.920;6.536;2022-12-18T16:30:21;-0.30;99.90
61016;DHT22;46902;52.920;6.536;2022-12-18T16:32:47;-0.30;99.90
61016;DHT22;46902;52.920;6.536;2022-12-18T16:35:14;-0.30;99.90
61016;DHT22;46902;52.920;6.536;2022-12-18T16:37:40;-0.30;99.90
61016;DHT22;46902;52.920;6.536;2022-12-18T16:40:08;-0.30;99.90
61016;DHT22;46902;52.920;6.536;2022-12-18T16:42:36;-0.30;99.90
61016;DHT22;46902;52.920;6.536;2022-12-18T16:45:02;-0.30;99.90
61016;DHT22;46902;52.920;6.536;2022-12-18T16:47:28;-0.30;99.90
61016;DHT22;46902;52.920;6.536;2022-12-18T16:49:54;-0.30;99.90
61016;DHT22;46902;52.920;6.536;2022-12-18T16:52:20;-0.30;99.90
61016;DHT22;46902;52.920;6.536;2022-12-18T16:54:47;-0.30;99.90
61016;DHT22;46902;52.920;6.536;2022-12-18T16:57:15;-0.30;99.90
61016;DHT22;46902;52.920;6.536;2022-12-18T16:59:41;-0.30;99.90
61016;DHT22;46902;52.920;6.536;2022-12-18T17:02:24;-0.30;99.90
61016;DHT22;46902;52.920;6.536;2022-12-18T17:04:55;-0.20;99.90
61016;DHT22;46902;52.920;6.536;2022-12-18T17:07:22;-0.20;99.90
61016;DHT22;46902;52.920;6.536;2022-12-18T17:09:48;-0.20;99.90
61016;DHT22;46902;52.920;6.536;2022-12-18T17:12:14;-0.20;99.90
61016;DHT22;46902;52.920;6.536;2022-12-18T17:14:40;-0.20;99.90
61016;DHT22;46902;52.920;6.536;2022-12-18T17:17:05;-0.20;99.90
61016;DHT22;46902;52.920;6.536;2022-12-18T17:19:32;-0.20;99.90
61016;DHT22;46902;52.920;6.536;2022-12-18T17:21:57;-0.20;99.90
61016;DHT22;46902;52.920;6.536;2022-12-18T17:24:23;-0.20;99.90
61016;DHT22;46902;52.920;6.536;2022-12-18T17:26:48;-0.20;99.90
61016;DHT22;46902;52.920;6.536;2022-12-18T17:29:18;-0.20;99.90